createdAt,value
2024-05-09T00:01:29.008Z,25.20
2024-05-09T00:03:56.642Z,27.10
2024-05-09T00:06:24.249Z,24.30
2024-05-09T00:08:51.760Z,28.10
2024-05-09T00:11:20.576Z,24.50
2024-05-09T00:13:48.582Z,23.40
2024-05-09T00:16:16.162Z,23.20
2024-05-09T00:18:43.807Z,22.30
2024-05-09T00:21:11.497Z,25.30
2024-05-09T00:23:39.207Z,20.10
2024-05-09T00:26:07.061Z,18.80
2024-05-09T00:28:34.670Z,17.00
2024-05-09T00:31:02.778Z,19.50
2024-05-09T00:33:30.700Z,21.60
2024-05-09T00:35:58.484Z,16.30
2024-05-09T00:38:26.123Z,14.30
2024-05-09T00:40:53.833Z,14.00
2024-05-09T00:43:21.390Z,15.90
2024-05-09T00:45:49.030Z,13.90
2024-05-09T00:48:19.787Z,16.20
2024-05-09T00:50:50.393Z,14.90
2024-05-09T00:53:19.149Z,16.70
2024-05-09T00:55:47.837Z,17.00
2024-05-09T00:58:19.973Z,15.10
2024-05-09T01:00:50.090Z,11.20
2024-05-09T01:03:18.094Z,12.10
2024-05-09T01:05:45.880Z,17.10
2024-05-09T01:08:13.671Z,14.50
2024-05-09T01:10:44.160Z,13.60
2024-05-09T01:13:13.791Z,13.60
2024-05-09T01:15:41.714Z,12.50
2024-05-09T01:18:13.799Z,12.50
2024-05-09T01:20:44.609Z,18.50
2024-05-09T01:23:15.215Z,17.60
2024-05-09T01:25:45.866Z,21.80
2024-05-09T01:28:14.861Z,17.70
2024-05-09T01:30:42.503Z,19.90
2024-05-09T01:33:11.854Z,20.30
2024-05-09T01:35:41.656Z,17.00
2024-05-09T01:38:16.726Z,15.60
2024-05-09T01:40:45.183Z,17.50
2024-05-09T01:43:12.907Z,15.20
2024-05-09T01:45:41.283Z,15.70
2024-05-09T01:48:11.148Z,17.40
2024-05-09T01:50:42.089Z,12.80
2024-05-09T01:53:13.745Z,15.00
2024-05-09T01:55:43.001Z,14.10
2024-05-09T01:58:10.915Z,12.80
2024-05-09T02:00:42.311Z,10.80
2024-05-09T02:03:16.040Z,11.10
2024-05-09T02:05:48.311Z,8.00
2024-05-09T02:08:21.543Z,14.30
2024-05-09T02:10:50.707Z,14.10
2024-05-09T02:13:18.734Z,14.40
2024-05-09T02:15:46.547Z,11.60
2024-05-09T02:18:14.473Z,11.00
2024-05-09T02:20:43.123Z,17.10
2024-05-09T02:23:12.114Z,13.10
2024-05-09T02:25:41.242Z,13.20
2024-05-09T02:28:09.100Z,16.30
2024-05-09T02:30:40.650Z,15.00
2024-05-09T02:33:11.692Z,9.50
2024-05-09T02:35:42.225Z,11.00
2024-05-09T02:38:10.597Z,11.70
2024-05-09T02:40:39.697Z,13.10
2024-05-09T02:43:10.174Z,14.80
2024-05-09T02:45:40.342Z,11.60
2024-05-09T02:48:13.235Z,10.20
2024-05-09T02:50:43.808Z,11.60
2024-05-09T02:53:12.250Z,14.50
2024-05-09T02:55:40.899Z,19.40
2024-05-09T02:58:09.304Z,7.40
2024-05-09T03:00:40.881Z,11.60
2024-05-09T03:03:13.432Z,11.10
2024-05-09T03:05:44.962Z,10.20
2024-05-09T03:08:13.342Z,11.20
2024-05-09T03:10:41.329Z,12.10
2024-05-09T03:13:12.250Z,16.10
2024-05-09T03:15:40.693Z,9.80
2024-05-09T03:18:08.486Z,10.40
2024-05-09T03:20:37.198Z,10.50
2024-05-09T03:23:09.245Z,8.70
2024-05-09T03:25:38.635Z,11.30
2024-05-09T03:28:07.146Z,9.40
2024-05-09T03:30:41.095Z,12.70
2024-05-09T03:33:17.430Z,8.20
2024-05-09T03:35:46.923Z,10.20
2024-05-09T03:38:15.216Z,8.60
2024-05-09T03:40:50.393Z,11.50
2024-05-09T03:43:19.786Z,9.40
2024-05-09T03:45:49.503Z,10.20
2024-05-09T03:48:17.520Z,16.90
2024-05-09T03:50:45.410Z,10.40
2024-05-09T03:53:14.375Z,11.10
2024-05-09T03:55:42.115Z,13.10
2024-05-09T03:58:09.836Z,11.70
2024-05-09T04:00:39.556Z,10.10
2024-05-09T04:03:10.790Z,9.20
2024-05-09T04:05:42.592Z,8.90
2024-05-09T04:08:15.230Z,8.60
2024-05-09T04:10:43.506Z,12.40
2024-05-09T04:13:11.412Z,14.20
2024-05-09T04:15:39.534Z,11.30
2024-05-09T04:18:07.404Z,9.60
2024-05-09T04:20:39.175Z,9.90
2024-05-09T04:23:13.533Z,6.80
2024-05-09T04:25:44.036Z,10.50
2024-05-09T04:28:12.678Z,11.80
2024-05-09T04:30:41.729Z,9.50
2024-05-09T04:33:12.368Z,10.90
2024-05-09T04:35:45.505Z,13.40
2024-05-09T04:38:14.431Z,10.40
2024-05-09T04:40:43.208Z,12.50
2024-05-09T04:43:15.944Z,12.00
2024-05-09T04:45:44.406Z,9.20
2024-05-09T04:48:12.313Z,9.30
2024-05-09T04:50:40.303Z,11.30
2024-05-09T04:55:40.023Z,11.30
2024-05-09T04:58:09.228Z,11.70
2024-05-09T05:00:39.730Z,10.80
2024-05-09T05:03:13.876Z,8.90
2024-05-09T05:05:45.686Z,9.40
2024-05-09T05:08:19.064Z,10.50
2024-05-09T05:10:48.426Z,9.60
2024-05-09T05:13:19.878Z,9.80
2024-05-09T05:15:51.130Z,9.80
2024-05-09T05:18:19.665Z,10.70
2024-05-09T05:20:48.201Z,11.90
2024-05-09T05:23:19.226Z,9.90
2024-05-09T05:25:48.501Z,8.80
2024-05-09T05:28:17.227Z,9.00
2024-05-09T05:30:45.905Z,10.60
2024-05-09T05:33:15.285Z,8.00
2024-05-09T05:35:43.845Z,7.30
2024-05-09T05:38:11.631Z,12.50
2024-05-09T05:40:40.431Z,11.60
2024-05-09T05:43:15.852Z,14.10
2024-05-09T05:45:45.432Z,9.30
2024-05-09T05:48:18.020Z,11.10
2024-05-09T05:50:46.351Z,8.90
2024-05-09T05:53:14.309Z,7.60
2024-05-09T05:55:42.115Z,8.60
2024-05-09T05:58:10.868Z,10.20
2024-05-09T06:00:40.252Z,7.80
2024-05-09T06:03:09.963Z,8.40
2024-05-09T06:05:40.039Z,9.60
2024-05-09T06:08:08.563Z,7.20
2024-05-09T06:10:39.543Z,5.70
2024-05-09T06:13:13.121Z,5.40
2024-05-09T06:15:42.050Z,7.30
2024-05-09T06:18:11.374Z,7.60
2024-05-09T06:20:43.030Z,5.10
2024-05-09T06:23:12.408Z,7.20
2024-05-09T06:25:41.608Z,6.50
2024-05-09T06:28:09.461Z,7.40
2024-05-09T06:30:40.216Z,6.00
2024-05-09T06:33:12.884Z,7.10
2024-05-09T06:35:43.255Z,5.30
2024-05-09T06:38:11.655Z,5.30
2024-05-09T06:40:42.363Z,4.90
2024-05-09T06:43:16.574Z,6.50
2024-05-09T06:45:48.269Z,7.70
2024-05-09T06:48:18.790Z,6.80
2024-05-09T06:50:47.358Z,16.80
2024-05-09T06:53:16.294Z,9.80
2024-05-09T06:55:43.979Z,5.80
2024-05-09T06:58:11.583Z,10.50
2024-05-09T07:00:41.302Z,6.90
2024-05-09T07:03:12.285Z,12.40
2024-05-09T07:05:41.756Z,8.20
2024-05-09T07:08:09.750Z,7.60
2024-05-09T07:10:37.962Z,7.40
2024-05-09T07:13:09.813Z,10.10
2024-05-09T07:15:37.624Z,5.70
2024-05-09T07:18:16.713Z,4.00
2024-05-09T07:20:46.438Z,4.50
2024-05-09T07:23:14.978Z,5.50
2024-05-09T07:25:42.849Z,5.10
2024-05-09T07:28:13.425Z,7.30
2024-05-09T07:30:41.858Z,7.40
2024-05-09T07:33:12.050Z,4.70
2024-05-09T07:35:39.934Z,5.80
2024-05-09T07:38:08.219Z,7.20
2024-05-09T07:40:37.052Z,3.10
2024-05-09T07:43:06.621Z,6.20
2024-05-09T07:53:37.054Z,5.60
2024-05-09T07:55:57.683Z,4.50
2024-05-09T07:58:27.595Z,7.90
2024-05-09T08:00:55.676Z,8.40
2024-05-09T08:03:23.603Z,7.50
2024-05-09T08:05:51.794Z,8.30
2024-05-09T08:08:19.959Z,3.50
2024-05-09T08:10:48.063Z,5.20
2024-05-09T08:13:15.831Z,5.80
2024-05-09T08:15:43.478Z,6.60
2024-05-09T08:18:11.517Z,6.10
2024-05-09T08:20:41.355Z,5.30
2024-05-09T08:23:10.697Z,10.00
2024-05-09T08:25:38.643Z,4.30
2024-05-09T08:28:06.583Z,7.50
2024-05-09T08:30:37.224Z,6.10
2024-05-09T08:33:07.117Z,7.60
2024-05-09T08:35:36.324Z,6.70
2024-05-09T08:38:05.715Z,3.70
2024-05-09T08:40:36.298Z,3.70
2024-05-09T08:43:11.546Z,3.90
2024-05-09T08:45:45.126Z,6.20
2024-05-09T08:48:15.261Z,5.70
2024-05-09T08:50:45.269Z,8.40
2024-05-09T08:53:15.138Z,5.10
2024-05-09T08:55:45.466Z,6.80
2024-05-09T08:58:17.040Z,3.70
2024-05-09T09:00:46.392Z,3.50
2024-05-09T09:03:19.402Z,8.70
2024-05-09T09:06:05.372Z,5.30
2024-05-09T09:08:33.033Z,6.10
2024-05-09T09:11:00.690Z,4.10
2024-05-09T09:13:28.700Z,4.40
2024-05-09T09:15:59.941Z,3.30
2024-05-09T09:18:29.882Z,5.20
2024-05-09T09:20:57.611Z,6.20
2024-05-09T09:23:30.473Z,4.70
2024-05-09T09:26:01.450Z,3.80
2024-05-09T09:28:29.837Z,4.30
2024-05-09T09:31:03.036Z,3.40
2024-05-09T09:33:31.485Z,5.80
2024-05-09T09:36:03.147Z,14.90
2024-05-09T09:38:32.339Z,8.60
2024-05-09T09:41:04.005Z,7.30
2024-05-09T09:43:33.205Z,4.20
2024-05-09T09:46:02.040Z,4.60
2024-05-09T09:48:31.454Z,7.80
2024-05-09T09:51:00.081Z,4.10
2024-05-09T09:53:33.469Z,5.20
2024-05-09T09:56:01.983Z,4.60
2024-05-09T09:58:32.675Z,5.60
2024-05-09T10:01:00.538Z,6.10
2024-05-09T10:03:28.568Z,5.00
2024-05-09T10:05:57.894Z,4.40
2024-05-09T10:08:25.856Z,5.70
2024-05-09T10:10:54.221Z,3.00
2024-05-09T10:13:32.682Z,5.30
2024-05-09T10:16:07.316Z,4.70
2024-05-09T10:18:39.854Z,6.80
2024-05-09T10:21:18.433Z,4.30
2024-05-09T10:24:09.222Z,4.50
2024-05-09T10:26:38.218Z,4.40
2024-05-09T10:29:13.698Z,4.00
2024-05-09T10:31:42.716Z,4.60
2024-05-09T10:34:18.564Z,3.60
2024-05-09T10:39:13.858Z,5.10
2024-05-09T10:41:41.394Z,3.90
2024-05-09T10:44:17.026Z,3.40
2024-05-09T10:46:46.139Z,3.00
2024-05-09T10:49:14.766Z,5.00
2024-05-09T10:51:47.346Z,4.80
2024-05-09T10:54:15.278Z,4.10
2024-05-09T10:56:43.090Z,5.40
2024-05-09T10:59:12.454Z,4.60
2024-05-09T11:01:40.540Z,7.30
2024-05-09T11:04:09.288Z,4.20
2024-05-09T11:06:38.271Z,5.40
2024-05-09T11:09:06.383Z,3.90
2024-05-09T11:11:34.333Z,5.60
2024-05-09T11:14:12.483Z,4.40
2024-05-09T11:16:40.333Z,4.20
2024-05-09T11:19:13.068Z,3.70
2024-05-09T11:21:40.766Z,4.90
2024-05-09T11:24:11.375Z,6.20
2024-05-09T11:26:39.614Z,8.70
2024-05-09T11:29:07.160Z,6.60
2024-05-09T11:31:45.752Z,8.00
2024-05-09T11:34:13.672Z,4.50
2024-05-09T11:36:41.502Z,6.10
2024-05-09T11:39:09.506Z,6.60
2024-05-09T11:41:37.539Z,6.60
2024-05-09T11:44:05.194Z,4.90
2024-05-09T11:46:32.904Z,5.90
2024-05-09T11:49:00.643Z,5.90
2024-05-09T11:51:28.373Z,5.10
2024-05-09T11:53:56.176Z,6.80
2024-05-09T11:56:23.706Z,5.80
2024-05-09T11:58:51.293Z,6.30
2024-05-09T12:01:20.089Z,7.60
2024-05-09T12:03:49.358Z,7.80
2024-05-09T12:06:17.677Z,8.10
2024-05-09T12:08:45.359Z,5.30
2024-05-09T12:11:13.929Z,6.60
2024-05-09T12:13:42.013Z,4.70
2024-05-09T12:16:09.984Z,8.60
2024-05-09T12:18:37.787Z,5.00
2024-05-09T12:21:05.656Z,5.10
2024-05-09T12:23:33.329Z,7.00
2024-05-09T12:26:01.278Z,6.00
2024-05-09T12:28:28.990Z,6.40
2024-05-09T12:30:57.006Z,6.30
2024-05-09T12:33:24.830Z,6.50
2024-05-09T12:35:52.743Z,6.30
2024-05-09T12:38:20.553Z,5.90
2024-05-09T12:40:48.271Z,6.00
2024-05-09T12:43:17.118Z,8.60
2024-05-09T12:45:44.949Z,6.40
2024-05-09T12:48:13.359Z,7.80
2024-05-09T12:50:42.006Z,6.20
2024-05-09T12:53:10.180Z,6.40
2024-05-09T12:55:44.818Z,5.90
2024-05-09T12:58:23.946Z,10.40
2024-05-09T13:00:52.288Z,7.10
2024-05-09T13:03:21.039Z,5.90
2024-05-09T13:05:52.849Z,6.10
2024-05-09T13:08:21.206Z,5.10
2024-05-09T13:10:49.964Z,6.20
2024-05-09T13:13:17.692Z,6.20
2024-05-09T13:15:45.873Z,10.70
2024-05-09T13:18:13.980Z,6.90
2024-05-09T13:20:41.853Z,5.50
2024-05-09T13:23:09.774Z,6.10
2024-05-09T13:25:38.352Z,5.70
2024-05-09T13:28:07.635Z,7.00
2024-05-09T13:30:40.381Z,5.30
2024-05-09T13:33:11.932Z,5.80
2024-05-09T13:35:45.714Z,3.70
2024-05-09T13:38:21.268Z,4.50
2024-05-09T13:40:50.218Z,4.50
2024-05-09T13:43:18.919Z,3.60
2024-05-09T13:45:47.269Z,4.30
2024-05-09T13:48:15.269Z,5.90
2024-05-09T13:50:43.137Z,6.80
2024-05-09T13:53:11.994Z,5.00
2024-05-09T13:55:40.482Z,6.40
2024-05-09T13:58:09.450Z,4.10
2024-05-09T14:00:45.016Z,4.20
2024-05-09T14:03:19.701Z,5.80
2024-05-09T14:05:50.852Z,5.40
2024-05-09T14:08:22.126Z,7.90
2024-05-09T14:10:50.826Z,4.00
2024-05-09T14:13:19.942Z,9.80
2024-05-09T14:15:48.395Z,6.30
2024-05-09T14:18:16.644Z,6.60
2024-05-09T14:20:44.291Z,6.60
2024-05-09T14:23:11.795Z,8.60
2024-05-09T14:25:42.733Z,4.10
2024-05-09T14:28:13.009Z,5.10
2024-05-09T14:30:42.046Z,4.90
2024-05-09T14:33:11.229Z,7.00
2024-05-09T14:35:39.316Z,4.60
2024-05-09T14:38:08.794Z,4.90
2024-05-09T14:40:42.007Z,4.80
2024-05-09T14:43:13.982Z,4.40
2024-05-09T14:45:43.278Z,5.10
2024-05-09T14:48:13.895Z,4.00
2024-05-09T14:50:42.407Z,5.60
2024-05-09T14:53:11.245Z,6.30
2024-05-09T14:55:41.137Z,5.80
2024-05-09T14:58:11.512Z,7.70
2024-05-09T15:00:45.897Z,4.00
2024-05-09T15:03:21.806Z,4.40
2024-05-09T15:05:51.374Z,4.90
2024-05-09T15:08:20.125Z,4.10
2024-05-09T15:10:49.588Z,5.20
2024-05-09T15:13:19.366Z,7.40
2024-05-09T15:15:47.437Z,7.00
2024-05-09T15:18:16.165Z,5.70
2024-05-09T15:20:44.753Z,4.70
2024-05-09T15:23:13.125Z,6.60
2024-05-09T15:25:40.816Z,4.90
2024-05-09T15:28:08.683Z,6.30
2024-05-09T15:30:37.679Z,5.70
2024-05-09T15:33:06.971Z,6.00
2024-05-09T15:35:35.805Z,5.60
2024-05-09T15:38:04.778Z,4.60
2024-05-09T15:40:39.483Z,7.00
2024-05-09T15:43:10.579Z,4.40
2024-05-09T15:45:41.248Z,7.20
2024-05-09T15:48:10.893Z,7.00
2024-05-09T15:50:41.457Z,7.20
2024-05-09T15:53:13.136Z,10.20
2024-05-09T15:55:42.499Z,3.50
2024-05-09T15:58:10.932Z,5.00
2024-05-09T16:00:42.224Z,5.70
2024-05-09T16:03:13.368Z,5.30
2024-05-09T16:05:44.910Z,7.40
2024-05-09T16:08:14.538Z,6.60
2024-05-09T16:10:45.847Z,7.60
2024-05-09T16:13:15.697Z,6.80
2024-05-09T16:15:43.920Z,6.10
2024-05-09T16:18:12.975Z,6.30
2024-05-09T16:20:42.469Z,6.30
2024-05-09T16:23:12.573Z,8.90
2024-05-09T16:25:45.396Z,6.10
2024-05-09T16:28:13.757Z,4.50
2024-05-09T16:30:41.644Z,6.30
2024-05-09T16:33:11.725Z,6.20
2024-05-09T16:35:40.005Z,4.60
2024-05-09T16:38:08.009Z,4.60
2024-05-09T16:40:39.799Z,4.40
2024-05-09T16:43:10.883Z,6.40
2024-05-09T16:45:40.431Z,5.90
2024-05-09T16:48:08.987Z,5.60
2024-05-09T16:50:37.344Z,5.20
2024-05-09T16:53:06.739Z,3.60
2024-05-09T16:55:35.581Z,4.80
2024-05-09T16:58:04.462Z,52.30
2024-05-09T17:00:40.251Z,6.90
2024-05-09T17:03:14.234Z,5.00
2024-05-09T17:05:46.512Z,6.10
2024-05-09T17:08:18.044Z,6.10
2024-05-09T17:10:48.938Z,6.50
2024-05-09T17:13:18.249Z,6.50
2024-05-09T17:15:46.801Z,5.40
2024-05-09T17:18:15.556Z,15.30
2024-05-09T17:20:43.135Z,10.20
2024-05-09T17:23:14.383Z,7.00
2024-05-09T17:25:42.956Z,8.30
2024-05-09T17:28:11.362Z,6.10
2024-05-09T17:30:41.626Z,5.60
2024-05-09T17:33:11.996Z,6.50
2024-05-09T17:35:41.144Z,6.50
2024-05-09T17:38:11.906Z,8.80
2024-05-09T17:40:40.106Z,6.20
2024-05-09T17:43:10.749Z,7.80
2024-05-09T17:45:40.853Z,9.00
2024-05-09T17:48:11.656Z,7.30
2024-05-09T17:50:41.585Z,5.20
2024-05-09T17:53:10.709Z,6.20
2024-05-09T17:55:40.257Z,4.00
2024-05-09T17:58:08.991Z,5.40
2024-05-09T18:00:40.265Z,7.00
2024-05-09T18:03:14.218Z,5.00
2024-05-09T18:05:44.776Z,7.00
2024-05-09T18:08:13.568Z,6.00
2024-05-09T18:10:42.039Z,6.30
2024-05-09T18:13:12.226Z,7.60
2024-05-09T18:15:40.756Z,4.70
2024-05-09T18:18:10.488Z,11.70
2024-05-09T18:20:43.655Z,9.60
2024-05-09T18:23:17.677Z,13.20
2024-05-09T18:25:47.989Z,8.70
2024-05-09T18:28:16.998Z,8.30
2024-05-09T18:30:45.691Z,6.90
2024-05-09T18:33:13.939Z,6.80
2024-05-09T18:35:43.939Z,5.90
2024-05-09T18:38:11.777Z,7.50
2024-05-09T18:40:41.159Z,7.90
2024-05-09T18:43:11.400Z,8.80
2024-05-09T18:45:39.889Z,7.40
2024-05-09T18:48:09.681Z,9.20
2024-05-09T18:50:40.327Z,7.80
2024-05-09T18:53:11.766Z,6.60
2024-05-09T18:55:41.668Z,6.40
2024-05-09T18:58:09.624Z,12.80
2024-05-09T19:00:40.206Z,6.80
2024-05-09T19:03:12.856Z,7.30
2024-05-09T19:05:44.214Z,9.70
2024-05-09T19:08:14.683Z,13.60
2024-05-09T19:10:43.010Z,18.00
2024-05-09T19:13:13.143Z,16.30
2024-05-09T19:15:42.910Z,11.70
2024-05-09T19:18:15.643Z,10.60
2024-05-09T19:20:43.957Z,15.50
2024-05-09T19:23:12.264Z,14.00
2024-05-09T19:25:40.319Z,14.90
2024-05-09T19:28:08.539Z,9.20
2024-05-09T19:30:40.688Z,11.80
2024-05-09T19:33:12.884Z,9.70
2024-05-09T19:35:42.788Z,13.10
2024-05-09T19:38:11.778Z,12.30
2024-05-09T19:40:39.363Z,12.30
2024-05-09T19:43:07.600Z,10.70
2024-05-09T19:45:36.471Z,12.30
2024-05-09T19:48:06.411Z,10.10
2024-05-09T19:50:41.522Z,8.00
2024-05-09T19:53:13.946Z,9.10
2024-05-09T19:55:42.486Z,11.80
2024-05-09T19:58:11.261Z,14.80
2024-05-09T20:00:42.135Z,18.30
2024-05-09T20:03:12.456Z,22.50
2024-05-09T20:05:43.947Z,24.00
2024-05-09T20:08:12.235Z,40.00
2024-05-09T20:10:39.921Z,58.20
2024-05-09T20:13:08.549Z,57.60
2024-05-09T20:15:37.426Z,64.70
2024-05-09T20:18:06.308Z,49.30
2024-05-09T20:20:39.254Z,39.40
2024-05-09T20:23:13.969Z,33.80
2024-05-09T20:25:42.263Z,30.10
2024-05-09T20:28:11.117Z,26.10
2024-05-09T20:30:39.362Z,36.40
2024-05-09T20:33:08.727Z,31.10
2024-05-09T20:35:37.546Z,35.70
2024-05-09T20:38:05.624Z,34.10
2024-05-09T20:40:37.261Z,35.90
2024-05-09T20:43:08.443Z,35.20
2024-05-09T20:45:36.535Z,32.20
2024-05-09T20:48:05.104Z,29.70
2024-05-09T20:50:38.762Z,34.90
2024-05-09T20:53:14.698Z,31.40
2024-05-09T20:55:44.530Z,32.30
2024-05-09T20:58:13.546Z,31.50
2024-05-09T21:00:44.479Z,34.10
2024-05-09T21:03:16.669Z,34.30
2024-05-09T21:05:46.795Z,32.50
2024-05-09T21:08:15.054Z,30.30
2024-05-09T21:10:42.824Z,29.30
2024-05-09T21:13:11.183Z,32.70
2024-05-09T21:15:38.989Z,35.60
2024-05-09T21:18:07.352Z,32.70
2024-05-09T21:20:37.452Z,38.70
2024-05-09T21:23:05.400Z,32.80
2024-05-09T21:25:33.228Z,32.30
2024-05-09T21:28:01.283Z,35.60
2024-05-09T21:30:38.495Z,40.20
2024-05-09T21:33:13.569Z,35.80
2024-05-09T21:35:43.611Z,44.20
2024-05-09T21:38:13.308Z,52.10
2024-05-09T21:40:41.724Z,47.40
2024-05-09T21:43:09.850Z,37.70
2024-05-09T21:45:37.866Z,33.90
2024-05-09T21:48:07.116Z,36.10
2024-05-09T21:50:40.309Z,30.00
2024-05-09T21:53:11.852Z,31.50
2024-05-09T21:55:40.067Z,29.60
2024-05-09T21:58:07.983Z,34.60
2024-05-09T22:00:39.433Z,33.80
2024-05-09T22:03:08.441Z,34.70
2024-05-09T22:05:38.802Z,34.30
2024-05-09T22:08:07.269Z,32.30
2024-05-09T22:10:36.499Z,26.70
2024-05-09T22:13:06.358Z,25.90
2024-05-09T22:15:36.843Z,32.80
2024-05-09T22:18:07.227Z,27.00
2024-05-09T22:20:38.455Z,29.50
2024-05-09T22:23:08.327Z,34.10
2024-05-09T22:25:38.654Z,31.90
2024-05-09T22:28:07.217Z,32.90
2024-05-09T22:30:38.459Z,31.10
2024-05-09T22:33:10.115Z,32.60
2024-05-09T22:35:40.263Z,27.10
2024-05-09T22:38:08.649Z,26.90
2024-05-09T22:40:46.342Z,33.50
2024-05-09T22:43:23.050Z,30.70
2024-05-09T22:45:54.567Z,32.50
2024-05-09T22:48:23.926Z,34.00
2024-05-09T22:50:52.932Z,28.00
2024-05-09T22:53:25.196Z,25.10
2024-05-09T22:55:53.454Z,29.40
2024-05-09T22:58:21.969Z,25.30
2024-05-09T23:00:49.764Z,20.70
2024-05-09T23:03:20.852Z,22.80
2024-05-09T23:05:49.029Z,27.80
2024-05-09T23:08:16.584Z,22.80
2024-05-09T23:10:44.315Z,26.50
2024-05-09T23:13:12.102Z,26.30
2024-05-09T23:15:39.843Z,24.60
2024-05-09T23:18:08.245Z,25.10
2024-05-09T23:20:39.027Z,27.80
2024-05-09T23:23:10.010Z,24.10
2024-05-09T23:25:41.440Z,28.20
2024-05-09T23:28:10.354Z,27.10
2024-05-09T23:30:40.587Z,25.90
2024-05-09T23:33:11.922Z,31.70
2024-05-09T23:35:41.709Z,26.80
2024-05-09T23:38:09.505Z,31.50
2024-05-09T23:40:40.110Z,25.80
2024-05-09T23:43:10.477Z,25.00
2024-05-09T23:45:38.744Z,23.00
2024-05-09T23:48:07.605Z,24.30
2024-05-09T23:50:37.999Z,20.40
2024-05-09T23:53:08.988Z,23.60
2024-05-09T23:55:38.865Z,21.30
2024-05-09T23:58:07.682Z,23.50
